Time;durP1;ratioP1;P1;durP2;ratioP2;P2;SDS_P1;SDS_P2;PMS_P1;PMS_P2;Temp;Humidity;BMP_temperature;BMP_pressure;BME280_temperature;BME280_humidity;BME280_pressure;Samples;Min_cycle;Max_cycle;Signal;HPM_P1;HPM_P2
2021/05/03 00:02:04;;;;;;;1.52;1.33;;;;;;;10.50;70.84;100796.41;4903528;28;97860;-62
2021/05/03 00:04:30;;;;;;;2.30;1.55;;;;;;;10.53;71.56;100809.34;4903527;28;98814;-62
2021/05/03 00:06:56;;;;;;;2.08;1.38;;;;;;;10.52;71.42;100805.00;4901055;28;116578;-59
2021/05/03 00:09:22;;;;;;;2.55;1.60;;;;;;;10.51;71.33;100811.50;4902711;28;127239;-59
2021/05/03 00:11:48;;;;;;;1.80;1.52;;;;;;;10.51;71.52;100819.56;4902156;28;123765;-62
2021/05/03 00:14:14;;;;;;;2.83;1.58;;;;;;;10.48;71.78;100821.97;4903466;28;111221;-62
2021/05/03 00:16:40;;;;;;;1.95;1.50;;;;;;;10.48;71.27;100819.28;4902544;28;128544;-62
2021/05/03 00:19:06;;;;;;;1.63;1.50;;;;;;;10.47;71.67;100829.25;4903037;28;127701;-63
2021/05/03 00:21:33;;;;;;;2.95;1.90;;;;;;;10.47;70.91;100834.63;4903485;28;116277;-62
2021/05/03 00:23:59;;;;;;;2.03;1.73;;;;;;;10.44;71.19;100829.75;4903823;28;98886;-62
2021/05/03 00:26:25;;;;;;;2.88;1.65;;;;;;;10.42;71.78;100833.78;4901647;28;128191;-59
2021/05/03 00:28:51;;;;;;;2.40;2.00;;;;;;;10.42;72.07;100839.19;4902507;28;128331;-62
2021/05/03 00:31:17;;;;;;;2.08;1.48;;;;;;;10.40;71.42;100835.91;4901915;28;97988;-62
2021/05/03 00:33:43;;;;;;;3.55;2.00;;;;;;;10.42;70.96;100839.19;4903402;28;115142;-62
2021/05/03 00:36:09;;;;;;;2.28;1.73;;;;;;;10.39;71.22;100843.19;4902022;28;127093;-59
2021/05/03 00:38:35;;;;;;;2.17;1.58;;;;;;;10.38;71.08;100848.84;4902205;28;128183;-62
2021/05/03 00:41:01;;;;;;;2.75;1.65;;;;;;;10.34;71.54;100837.78;4902683;28;108594;-59
2021/05/03 00:43:28;;;;;;;1.92;1.60;;;;;;;10.34;71.45;100839.66;4903215;28;99035;-59
2021/05/03 00:45:54;;;;;;;2.83;1.70;;;;;;;10.34;71.35;100845.84;4903335;28;99035;-59
2021/05/03 00:48:20;;;;;;;2.28;1.80;;;;;;;10.32;71.55;100848.78;4903600;28;98181;-59
2021/05/03 00:50:47;;;;;;;2.45;1.75;;;;;;;10.30;71.30;100855.53;4901903;28;123261;-59
2021/05/03 00:53:13;;;;;;;3.15;1.85;;;;;;;10.29;70.97;100853.88;4902846;28;98527;-59
2021/05/03 00:55:39;;;;;;;3.08;2.10;;;;;;;10.28;70.96;100858.47;4901162;28;98497;-59
2021/05/03 00:58:06;;;;;;;3.05;1.80;;;;;;;10.25;71.65;100848.19;4900893;28;98182;-59
2021/05/03 01:00:32;;;;;;;2.50;1.70;;;;;;;10.25;71.49;100856.25;4902985;28;97864;-59
2021/05/03 01:02:58;;;;;;;2.35;1.70;;;;;;;10.23;71.33;100857.56;4900628;28;111897;-62
2021/05/03 01:05:28;;;;;;;4.32;1.85;;;;;;;10.23;71.35;100855.69;4902690;28;117329;-59
2021/05/03 01:07:56;;;;;;;2.17;1.80;;;;;;;10.23;71.49;100862.97;4899875;28;99548;-62
2021/05/03 01:10:22;;;;;;;2.28;1.65;;;;;;;10.18;71.31;100863.75;4903580;28;97860;-59
2021/05/03 01:12:48;;;;;;;2.65;1.65;;;;;;;10.19;71.29;100875.31;4902772;28;98405;-62
2021/05/03 01:15:22;;;;;;;2.33;1.90;;;;;;;10.17;70.97;100864.78;4901705;28;98339;-59
2021/05/03 01:18:02;;;;;;;2.28;1.63;;;;;;;10.14;71.25;100868.00;4902410;28;97922;-62
2021/05/03 01:20:33;;;;;;;2.15;1.85;;;;;;;10.13;70.89;100869.06;4902160;28;97822;-59
2021/05/03 01:22:59;;;;;;;3.38;1.65;;;;;;;10.09;71.66;100867.94;4902911;28;98151;-62
2021/05/03 01:25:30;;;;;;;3.58;2.10;;;;;;;10.09;71.16;100863.34;4916397;28;120756;-59
2021/05/03 01:27:59;;;;;;;2.55;2.00;;;;;;;10.12;71.18;100880.09;4900391;28;98066;-59
2021/05/03 01:30:39;;;;;;;2.47;1.80;;;;;;;10.08;70.73;100883.28;4902971;28;98114;-59
2021/05/03 01:33:07;;;;;;;2.22;1.70;;;;;;;10.06;71.15;100877.34;4916037;28;98343;-59
2021/05/03 01:35:37;;;;;;;2.35;1.90;;;;;;;10.04;71.43;100879.47;4903041;28;100606;-59
2021/05/03 01:38:04;;;;;;;3.00;1.60;;;;;;;10.02;70.70;100880.78;4917118;28;97855;-62
2021/05/03 01:40:31;;;;;;;2.47;1.77;;;;;;;10.00;71.52;100885.63;4903102;28;97949;-63
2021/05/03 01:43:09;;;;;;;2.33;1.60;;;;;;;9.97;71.23;100888.81;4902184;28;98863;-59
2021/05/03 01:45:35;;;;;;;2.58;1.95;;;;;;;9.92;71.46;100880.69;4901879;28;98291;-62
2021/05/03 01:48:01;;;;;;;2.35;1.60;;;;;;;9.90;71.29;100890.88;4899103;28;128157;-59
2021/05/03 01:50:27;;;;;;;2.53;1.73;;;;;;;9.88;70.99;100891.16;4899328;28;122911;-59
2021/05/03 01:52:53;;;;;;;2.30;1.80;;;;;;;9.83;70.97;100889.22;4902044;28;127179;-62
2021/05/03 01:55:20;;;;;;;2.95;1.73;;;;;;;9.84;71.03;100898.09;4883093;28;127765;-62
2021/05/03 01:57:46;;;;;;;2.58;1.63;;;;;;;9.82;70.83;100889.44;4901827;28;98446;-59
2021/05/03 02:00:13;;;;;;;2.22;1.60;;;;;;;9.79;71.02;100901.56;4901027;28;123641;-62
2021/05/03 02:02:39;;;;;;;2.20;1.70;;;;;;;9.77;71.63;100900.16;4902634;28;98055;-62
2021/05/03 02:05:06;;;;;;;2.45;1.88;;;;;;;9.77;71.04;100908.25;4901691;28;126599;-62
2021/05/03 02:07:32;;;;;;;2.55;1.80;;;;;;;9.73;71.19;100899.06;4901442;28;106661;-59
2021/05/03 02:09:58;;;;;;;2.80;1.63;;;;;;;9.76;70.93;100912.03;4900927;28;125072;-59
2021/05/03 02:12:24;;;;;;;1.92;1.52;;;;;;;9.73;71.20;100909.81;4900712;28;127893;-59
2021/05/03 02:14:50;;;;;;;3.10;1.55;;;;;;;9.72;71.17;100911.69;4902377;28;98382;-62
2021/05/03 02:17:16;;;;;;;2.40;1.73;;;;;;;9.70;71.29;100913.81;4900457;28;127441;-62
2021/05/03 02:19:42;;;;;;;2.35;1.73;;;;;;;9.69;71.31;100908.69;4901118;28;122989;-59
2021/05/03 02:22:08;;;;;;;2.28;1.80;;;;;;;9.69;71.59;100911.38;4901509;28;128013;-59
2021/05/03 02:24:34;;;;;;;3.10;1.80;;;;;;;9.68;71.42;100907.88;4901854;28;126177;-59
2021/05/03 02:27:00;;;;;;;2.58;1.70;;;;;;;9.66;71.16;100906.50;4899917;28;126999;-59
2021/05/03 02:29:26;;;;;;;2.60;1.70;;;;;;;9.65;71.46;100912.94;4916469;28;101590;-59
2021/05/03 02:31:52;;;;;;;2.55;1.85;;;;;;;9.63;71.23;100913.22;4900370;28;124551;-62
2021/05/03 02:34:19;;;;;;;2.00;1.77;;;;;;;9.59;71.20;100917.47;4901197;28;126799;-59
2021/05/03 02:36:45;;;;;;;2.15;1.60;;;;;;;9.61;71.33;100920.72;4898295;28;127186;-62
2021/05/03 02:39:11;;;;;;;3.13;2.00;;;;;;;9.59;71.22;100920.97;4900879;28;98132;-61
2021/05/03 02:41:37;;;;;;;3.75;1.85;;;;;;;9.57;71.61;100919.59;4900793;28;127201;-62
2021/05/03 02:44:03;;;;;;;2.78;1.80;;;;;;;9.58;71.07;100919.31;4895375;28;127260;-59
2021/05/03 02:46:29;;;;;;;2.97;1.88;;;;;;;9.54;71.12;100917.38;4895551;28;113149;-62
2021/05/03 02:48:56;;;;;;;3.05;1.95;;;;;;;9.55;71.38;100919.84;4893465;28;106499;-62
2021/05/03 02:51:22;;;;;;;3.15;1.80;;;;;;;9.53;71.47;100929.22;4901271;28;98283;-59
2021/05/03 02:53:48;;;;;;;2.95;1.80;;;;;;;9.53;71.40;100916.56;4900371;28;128255;-62
2021/05/03 02:56:14;;;;;;;3.25;2.00;;;;;;;9.50;71.40;100927.00;4900009;28;105253;-62
2021/05/03 02:58:40;;;;;;;2.30;1.70;;;;;;;9.49;70.80;100931.59;4900920;28;116784;-62
2021/05/03 03:01:06;;;;;;;2.67;2.20;;;;;;;9.49;71.48;100936.97;4900847;28;117645;-61
2021/05/03 03:03:32;;;;;;;4.28;2.38;;;;;;;9.46;70.87;100934.78;4901132;28;98929;-59
2021/05/03 03:05:58;;;;;;;2.33;2.00;;;;;;;9.46;71.28;100942.03;4899943;28;126860;-59
2021/05/03 03:08:24;;;;;;;2.63;2.00;;;;;;;9.43;71.26;100942.53;4900153;28;123016;-62
2021/05/03 03:10:50;;;;;;;2.67;2.10;;;;;;;9.42;71.14;100946.28;4899569;28;128150;-59
2021/05/03 03:13:17;;;;;;;4.32;2.20;;;;;;;9.41;71.27;100942.78;4898864;28;127936;-59
2021/05/03 03:15:43;;;;;;;3.42;2.13;;;;;;;9.41;70.75;100950.03;4882348;28;97987;-59
2021/05/03 03:18:09;;;;;;;2.92;2.30;;;;;;;9.40;70.98;100953.81;4900724;28;97805;-62
2021/05/03 03:20:35;;;;;;;4.20;2.42;;;;;;;9.36;70.89;100950.78;4897867;28;127365;-59
2021/05/03 03:23:01;;;;;;;4.05;2.03;;;;;;;9.38;70.94;100953.22;4898641;28;127704;-59
2021/05/03 03:25:29;;;;;;;3.85;2.38;;;;;;;9.38;70.76;100959.41;4900346;28;117570;-59
2021/05/03 03:27:55;;;;;;;3.70;2.28;;;;;;;9.37;70.73;100957.78;4900612;28;97742;-59
2021/05/03 03:30:21;;;;;;;3.30;2.60;;;;;;;9.33;71.31;100959.34;4899349;28;116321;-62
2021/05/03 03:32:47;;;;;;;3.00;2.30;;;;;;;9.33;71.28;100960.16;4899437;28;127832;-62
2021/05/03 03:35:18;;;;;;;3.53;2.55;;;;;;;9.32;71.33;100960.41;4901147;28;98086;-62
2021/05/03 03:37:44;;;;;;;2.75;2.20;;;;;;;9.33;70.99;100973.63;4900726;28;109307;-62
2021/05/03 03:40:11;;;;;;;2.97;2.00;;;;;;;9.33;71.17;100976.31;4899156;28;97993;-59
2021/05/03 03:42:37;;;;;;;4.18;2.33;;;;;;;9.35;70.83;100981.44;4900888;28;98694;-62
2021/05/03 03:45:06;;;;;;;2.35;2.13;;;;;;;9.33;71.27;100981.69;4899127;28;113224;-59
2021/05/03 03:47:32;;;;;;;3.50;2.63;;;;;;;9.30;70.59;100987.56;4900589;28;97793;-62
2021/05/03 03:49:58;;;;;;;3.17;2.30;;;;;;;9.32;70.84;100988.13;4900177;28;127341;-62
2021/05/03 03:52:24;;;;;;;4.95;2.58;;;;;;;9.36;70.64;100993.03;4899347;28;128188;-59
2021/05/03 03:54:51;;;;;;;4.15;2.67;;;;;;;9.35;70.54;100986.81;4900628;28;97997;-62
2021/05/03 03:57:18;;;;;;;3.53;2.30;;;;;;;9.35;71.05;100989.50;4900132;28;97800;-58
2021/05/03 03:59:46;;;;;;;4.05;2.75;;;;;;;9.36;70.60;100993.03;4900247;28;98768;-59
2021/05/03 04:02:12;;;;;;;2.80;2.50;;;;;;;9.38;70.81;100988.19;4899934;28;99020;-59
2021/05/03 04:04:42;;;;;;;2.75;2.35;;;;;;;9.39;70.51;100993.31;4882430;28;127732;-59
2021/05/03 04:07:17;;;;;;;2.95;2.42;;;;;;;9.39;70.57;100998.72;4900837;28;97825;-59
2021/05/03 04:10:05;;;;;;;2.80;2.00;;;;;;;9.43;70.45;100996.34;4900198;28;98622;-62
2021/05/03 04:23:54;;;;;;;3.05;2.17;;;;;;;9.48;70.41;101012.59;4915503;28;98605;-59
2021/05/03 04:26:22;;;;;;;3.45;2.33;;;;;;;9.51;70.62;101006.69;4898716;28;98510;-59
2021/05/03 04:28:50;;;;;;;3.70;2.50;;;;;;;9.54;70.48;101023.16;4891271;28;99046;-58
2021/05/03 04:31:17;;;;;;;3.65;2.45;;;;;;;9.55;70.39;101027.50;4897577;28;98330;-59
2021/05/03 04:33:43;;;;;;;3.15;2.08;;;;;;;9.61;70.39;101023.00;4898738;28;98423;-63
2021/05/03 04:36:09;;;;;;;4.13;2.17;;;;;;;9.68;70.69;101014.75;4897611;28;99777;-59
2021/05/03 04:38:35;;;;;;;4.63;2.30;;;;;;;9.73;70.26;101020.19;4900508;28;97719;-59
2021/05/03 04:41:01;;;;;;;3.25;2.22;;;;;;;9.77;69.95;101014.06;4900460;28;103210;-59
2021/05/03 04:43:27;;;;;;;3.03;2.22;;;;;;;9.86;69.86;101024.41;4903680;28;98741;-59
2021/05/03 04:45:53;;;;;;;3.67;2.20;;;;;;;9.89;70.08;101021.22;4899739;28;117869;-59
2021/05/03 04:48:19;;;;;;;3.10;2.22;;;;;;;9.89;70.00;101024.72;4899005;28;120836;-62
2021/05/03 04:50:46;;;;;;;2.85;2.10;;;;;;;10.05;70.21;101020.34;4899091;28;99068;-60
2021/05/03 04:53:12;;;;;;;3.40;1.98;;;;;;;10.20;69.33;101035.91;4899482;28;127139;-62
2021/05/03 04:55:38;;;;;;;3.38;2.20;;;;;;;10.28;69.63;101032.78;4899535;28;98127;-62
2021/05/03 04:58:04;;;;;;;3.53;2.33;;;;;;;10.32;69.34;101031.22;4898584;28;98490;-59
2021/05/03 05:00:30;;;;;;;2.72;2.20;;;;;;;10.41;69.36;101031.59;4898169;28;127331;-59
2021/05/03 05:02:56;;;;;;;3.42;2.50;;;;;;;10.46;69.51;101032.47;4899219;28;104215;-62
2021/05/03 05:05:23;;;;;;;3.63;2.20;;;;;;;10.62;69.57;101038.03;4899006;28;98049;-62
2021/05/03 05:07:49;;;;;;;2.80;2.28;;;;;;;10.79;69.42;101044.94;4897303;28;99132;-59
2021/05/03 05:10:15;;;;;;;3.05;2.10;;;;;;;10.88;68.39;101039.06;4865633;28;106042;-59
2021/05/03 05:12:41;;;;;;;2.90;2.22;;;;;;;10.89;69.76;101041.53;4899397;28;99310;-59
2021/05/03 05:15:07;;;;;;;3.20;2.17;;;;;;;11.03;68.70;101031.94;4891288;28;98252;-60
2021/05/03 05:17:34;;;;;;;3.67;2.10;;;;;;;11.12;68.44;101029.63;4876516;28;97943;-63
2021/05/03 05:20:02;;;;;;;2.55;2.00;;;;;;;11.21;68.39;101030.75;4895295;28;98177;-59
2021/05/03 05:22:28;;;;;;;2.13;1.88;;;;;;;11.30;68.71;101037.28;4897321;28;114687;-62
2021/05/03 05:24:55;;;;;;;3.05;1.98;;;;;;;11.34;68.40;101034.91;4896599;28;112276;-59
2021/05/03 05:27:21;;;;;;;2.92;2.05;;;;;;;11.51;68.00;101035.59;4880048;28;110920;-62
2021/05/03 05:29:47;;;;;;;2.78;1.98;;;;;;;11.63;67.28;101042.66;4898307;28;120295;-62
2021/05/03 05:32:13;;;;;;;2.80;1.88;;;;;;;11.80;67.46;101040.63;4898479;28;98073;-59
2021/05/03 05:34:39;;;;;;;2.63;1.80;;;;;;;11.95;66.97;101034.50;4897985;28;128590;-63
2021/05/03 05:37:05;;;;;;;3.15;2.17;;;;;;;12.28;65.81;101039.50;4898465;28;121416;-63
2021/05/03 05:39:31;;;;;;;2.40;1.83;;;;;;;12.39;65.57;101045.78;4898139;28;125798;-60
2021/05/03 05:41:57;;;;;;;3.28;2.00;;;;;;;12.52;65.51;101036.34;4897290;28;130115;-59
2021/05/03 05:44:23;;;;;;;3.00;2.08;;;;;;;12.61;65.74;101044.75;4898479;28;108272;-60
2021/05/03 05:46:50;;;;;;;2.47;1.63;;;;;;;12.68;65.65;101032.59;4894849;28;123226;-63
2021/05/03 05:49:16;;;;;;;2.22;1.95;;;;;;;12.70;65.34;101043.16;4897943;28;98035;-63
2021/05/03 05:51:42;;;;;;;2.80;2.10;;;;;;;13.01;64.71;101052.13;4896629;28;122021;-63
2021/05/03 05:54:08;;;;;;;2.90;2.00;;;;;;;13.01;64.89;101041.31;4897479;28;98471;-63
2021/05/03 05:56:34;;;;;;;2.70;1.80;;;;;;;13.26;64.25;101044.03;4897528;28;120959;-59
2021/05/03 05:59:00;;;;;;;1.85;1.63;;;;;;;13.50;63.42;101044.31;4896156;28;128562;-62
2021/05/03 06:01:27;;;;;;;2.67;1.55;;;;;;;13.55;63.09;101043.47;4897787;28;128712;-62
2021/05/03 06:03:54;;;;;;;2.72;1.80;;;;;;;13.67;63.06;101051.31;4898817;28;98156;-59
2021/05/03 06:06:20;;;;;;;1.95;1.70;;;;;;;13.81;63.45;101046.97;4898080;28;97934;-60
2021/05/03 06:08:46;;;;;;;2.97;1.73;;;;;;;13.98;62.41;101052.88;4898244;28;98720;-63
2021/05/03 06:11:13;;;;;;;2.85;1.73;;;;;;;14.17;61.14;101042.22;4897989;28;98990;-60
2021/05/03 06:13:39;;;;;;;3.25;1.70;;;;;;;14.28;61.54;101042.19;4895864;28;118323;-63
2021/05/03 06:16:05;;;;;;;2.65;1.63;;;;;;;14.29;61.46;101050.03;4898903;28;97991;-61
2021/05/03 06:18:31;;;;;;;2.65;1.48;;;;;;;14.37;61.57;101043.22;4897879;28;97808;-63
2021/05/03 06:20:58;;;;;;;2.75;1.40;;;;;;;14.46;61.06;101052.41;4896814;28;127593;-63
2021/05/03 06:23:24;;;;;;;2.55;1.48;;;;;;;14.39;59.95;101049.22;4897625;28;127801;-60
2021/05/03 06:25:50;;;;;;;2.75;1.70;;;;;;;14.38;61.34;101058.41;4897172;28;123154;-60
2021/05/03 06:28:16;;;;;;;2.53;1.55;;;;;;;14.36;60.47;101049.75;4897508;28;98377;-63
2021/05/03 06:30:42;;;;;;;1.85;1.30;;;;;;;14.73;60.33;101063.69;4897326;28;127789;-63
2021/05/03 06:33:08;;;;;;;2.75;1.30;;;;;;;15.00;57.47;101056.19;4897515;28;126616;-63
2021/05/03 06:35:34;;;;;;;2.13;1.27;;;;;;;15.11;58.08;101058.53;4897154;28;116282;-60
2021/05/03 06:38:00;;;;;;;2.03;1.13;;;;;;;15.37;57.25;101069.22;4895775;28;128064;-63
2021/05/03 06:40:26;;;;;;;3.20;1.65;;;;;;;15.66;56.80;101063.81;4894897;28;98800;-63
2021/05/03 06:42:52;;;;;;;2.85;1.38;;;;;;;16.28;58.28;101056.59;4897554;28;98702;-60
2021/05/03 06:45:20;;;;;;;2.25;1.10;;;;;;;17.00;58.59;101056.44;4896158;28;123621;-63
2021/05/03 06:47:48;;;;;;;1.98;1.05;;;;;;;16.81;57.23;101058.38;4896828;28;98697;-62
2021/05/03 06:50:14;;;;;;;1.58;1.10;;;;;;;16.83;57.48;101064.34;4897809;28;97849;-60
2021/05/03 06:52:41;;;;;;;2.00;1.42;;;;;;;16.96;59.85;101063.59;4896010;28;98155;-63
2021/05/03 06:55:08;;;;;;;2.08;1.25;;;;;;;17.20;56.65;101059.94;4899093;28;98219;-62
2021/05/03 06:57:34;;;;;;;2.50;1.15;;;;;;;17.18;56.48;101060.25;4897728;28;98150;-60
2021/05/03 07:00:00;;;;;;;1.70;0.93;;;;;;;17.22;57.61;101057.75;4897127;28;126476;-60
2021/05/03 07:02:26;;;;;;;3.25;1.20;;;;;;;17.21;59.03;101056.91;4897701;28;98231;-63
2021/05/03 07:04:52;;;;;;;1.85;0.90;;;;;;;17.50;59.66;101061.34;4898921;28;97958;-60
2021/05/03 07:07:19;;;;;;;2.85;1.30;;;;;;;17.67;56.25;101069.75;4896667;28;127293;-60
2021/05/03 07:09:47;;;;;;;1.52;0.88;;;;;;;18.90;55.77;101059.91;4896559;28;98253;-60
2021/05/03 07:12:15;;;;;;;2.10;0.98;;;;;;;19.95;55.32;101053.19;4898008;28;97914;-63
2021/05/03 07:14:41;;;;;;;1.73;0.70;;;;;;;19.45;55.93;101050.66;4897078;28;98010;-60
2021/05/03 07:17:07;;;;;;;1.50;0.70;;;;;;;19.51;54.60;101063.09;4895622;28;106001;-63
2021/05/03 07:19:36;;;;;;;1.85;0.70;;;;;;;20.33;53.80;101057.00;4880117;28;98965;-64
2021/05/03 07:22:11;;;;;;;1.60;0.50;;;;;;;20.65;55.15;101060.47;4896683;28;98920;-61
2021/05/03 07:24:38;;;;;;;1.20;0.60;;;;;;;21.19;53.19;101060.94;4898541;28;97903;-63
2021/05/03 07:27:07;;;;;;;0.90;0.50;;;;;;;22.12;52.49;101067.59;4896497;28;99882;-61
2021/05/03 07:29:33;;;;;;;1.10;0.50;;;;;;;22.87;48.39;101062.31;4897015;28;99109;-63
2021/05/03 07:31:59;;;;;;;1.40;0.40;;;;;;;23.12;50.15;101071.50;4894810;28;112729;-63
2021/05/03 07:34:25;;;;;;;1.20;0.40;;;;;;;23.90;48.32;101070.69;4897166;28;121854;-60
2021/05/03 07:36:51;;;;;;;1.40;0.40;;;;;;;24.27;48.93;101078.13;4897014;28;98468;-64
2021/05/03 07:39:17;;;;;;;1.20;0.30;;;;;;;24.77;47.97;101072.22;4896804;28;108575;-64
2021/05/03 07:41:44;;;;;;;1.17;0.40;;;;;;;24.51;49.42;101080.09;4897239;28;98141;-60
2021/05/03 07:44:10;;;;;;;1.38;0.32;;;;;;;23.25;52.09;101080.59;4898275;28;98136;-64
2021/05/03 07:46:37;;;;;;;1.10;0.30;;;;;;;23.16;51.70;101086.19;4896228;28;98855;-61
2021/05/03 07:49:03;;;;;;;1.27;0.50;;;;;;;23.67;48.22;101075.00;4897802;28;98640;-64
2021/05/03 07:51:33;;;;;;;1.40;0.30;;;;;;;22.71;51.58;101067.59;4896079;28;98056;-63
2021/05/03 07:54:00;;;;;;;1.10;0.43;;;;;;;23.46;47.76;101077.78;4897385;28;97923;-64
2021/05/03 07:56:26;;;;;;;0.80;0.30;;;;;;;25.36;45.10;101066.03;4896494;28;98940;-64
2021/05/03 07:58:52;;;;;;;0.75;0.30;;;;;;;25.73;45.22;101063.03;4896780;28;100739;-62
2021/05/03 08:01:18;;;;;;;1.33;0.30;;;;;;;26.89;43.49;101065.38;4895868;28;127465;-64
2021/05/03 08:03:45;;;;;;;1.42;0.40;;;;;;;27.80;41.69;101067.50;4896112;28;122915;-64
2021/05/03 08:06:13;;;;;;;1.58;0.20;;;;;;;27.66;42.66;101089.38;4897223;28;102275;-61
2021/05/03 08:08:41;;;;;;;1.10;0.30;;;;;;;26.51;44.99;101100.09;4897087;28;98396;-61
2021/05/03 08:11:08;;;;;;;1.70;0.38;;;;;;;28.82;40.05;101090.81;4897342;28;98372;-62
2021/05/03 08:13:34;;;;;;;1.45;0.20;;;;;;;29.62;39.74;101085.81;4897868;28;100189;-64
2021/05/03 08:16:03;;;;;;;1.00;0.30;;;;;;;29.76;38.84;101085.94;4896811;28;98851;-61
2021/05/03 08:18:30;;;;;;;0.65;0.20;;;;;;;27.65;42.67;101096.88;4900950;28;98616;-64
2021/05/03 08:20:57;;;;;;;0.80;0.20;;;;;;;26.76;44.02;101089.56;4899968;28;98515;-61
2021/05/03 08:23:26;;;;;;;1.30;0.30;;;;;;;28.55;40.83;101088.06;4901543;28;98311;-61
2021/05/03 08:25:53;;;;;;;1.45;0.30;;;;;;;28.07;41.58;101081.41;4900362;28;99433;-64
2021/05/03 08:28:19;;;;;;;0.98;0.25;;;;;;;27.92;41.97;101087.88;4899234;28;117620;-61
2021/05/03 08:30:46;;;;;;;1.00;0.20;;;;;;;25.67;45.43;101090.13;4899812;28;106591;-63
2021/05/03 08:33:13;;;;;;;2.22;0.38;;;;;;;23.92;47.20;101106.13;4882725;28;97943;-63
2021/05/03 08:35:39;;;;;;;2.28;0.30;;;;;;;22.63;48.25;101095.94;4899930;28;118579;-61
2021/05/03 08:38:05;;;;;;;1.75;0.40;;;;;;;21.51;49.78;101102.69;4897488;28;127863;-60
2021/05/03 08:40:31;;;;;;;1.45;0.50;;;;;;;20.49;51.32;101111.34;4899520;28;107182;-60
2021/05/03 08:43:00;;;;;;;1.10;0.43;;;;;;;19.60;52.69;101124.88;4899752;28;104502;-60
2021/05/03 08:45:26;;;;;;;1.35;0.40;;;;;;;19.03;53.54;101112.91;4899998;28;98475;-63
2021/05/03 08:48:06;;;;;;;1.25;0.40;;;;;;;18.43;55.84;101113.91;4899033;28;117480;-60
2021/05/03 08:53:26;;;;;;;1.40;0.50;;;;;;;19.26;54.68;101108.28;4895731;28;98072;-63
2021/05/03 08:55:52;;;;;;;1.33;0.30;;;;;;;19.16;54.95;101108.50;4897794;28;98580;-63
2021/05/03 08:58:19;;;;;;;0.93;0.30;;;;;;;21.49;50.00;101088.50;4899418;28;127925;-63
2021/05/03 09:00:45;;;;;;;1.58;0.43;;;;;;;24.12;44.68;101083.19;4899673;28;98541;-61
2021/05/03 09:03:11;;;;;;;1.92;0.35;;;;;;;26.49;40.92;101077.56;4899485;28;97869;-64
2021/05/03 09:05:38;;;;;;;0.73;0.30;;;;;;;28.14;39.08;101081.53;4898511;28;98494;-62
2021/05/03 09:08:05;;;;;;;1.05;0.30;;;;;;;30.11;35.89;101084.63;4899534;28;98542;-64
2021/05/03 09:10:31;;;;;;;0.90;0.30;;;;;;;30.22;36.85;101079.97;4899805;28;98019;-64
2021/05/03 09:13:10;;;;;;;0.70;0.20;;;;;;;28.59;40.91;101079.81;4899179;28;98239;-64
2021/05/03 09:15:36;;;;;;;1.48;0.30;;;;;;;26.30;45.36;101089.31;4898863;28;98790;-63
2021/05/03 09:18:02;;;;;;;1.17;0.20;;;;;;;24.46;47.83;101087.44;4898519;28;128090;-63
2021/05/03 09:20:29;;;;;;;1.35;0.30;;;;;;;23.21;49.51;101076.91;4897315;28;98093;-60
2021/05/03 09:23:12;;;;;;;1.33;0.20;;;;;;;22.08;51.31;101083.13;4899892;28;97995;-63
2021/05/03 09:25:42;;;;;;;1.38;0.25;;;;;;;21.27;51.58;101086.75;4899464;28;98399;-60
2021/05/03 09:28:12;;;;;;;1.92;0.30;;;;;;;20.64;52.57;101080.78;4880112;28;97869;-63
2021/05/03 09:30:59;;;;;;;1.85;0.30;;;;;;;20.32;53.80;101084.72;4897336;28;98154;-60
2021/05/03 09:33:35;;;;;;;1.10;0.30;;;;;;;19.78;54.46;101087.53;4882927;28;97988;-60
2021/05/03 09:36:09;;;;;;;1.15;0.35;;;;;;;19.41;55.04;101091.47;4898800;28;98153;-60
2021/05/03 09:38:38;;;;;;;1.00;0.30;;;;;;;19.44;55.04;101082.66;4899168;28;98591;-60
2021/05/03 09:41:27;;;;;;;2.05;0.40;;;;;;;19.91;54.33;101074.09;4898181;28;97974;-63
2021/05/03 09:43:55;;;;;;;1.00;0.30;;;;;;;20.40;52.88;101072.97;4900395;28;97938;-63
2021/05/03 09:46:37;;;;;;;1.02;0.28;;;;;;;20.35;53.78;101079.38;4898806;28;98206;-62
2021/05/03 09:49:09;;;;;;;0.60;0.20;;;;;;;20.44;53.53;101075.88;4899079;28;98489;-60
2021/05/03 09:51:46;;;;;;;1.13;0.20;;;;;;;19.75;54.53;101079.97;4898270;28;98414;-60
2021/05/03 09:54:14;;;;;;;1.10;0.30;;;;;;;19.32;54.81;101082.41;4900334;28;98076;-62
2021/05/03 09:56:52;;;;;;;0.70;0.20;;;;;;;18.94;55.43;101071.84;4898495;28;98355;-63
2021/05/03 09:59:36;;;;;;;0.60;0.30;;;;;;;18.77;56.63;101067.03;4898324;28;99079;-63
2021/05/03 10:02:04;;;;;;;0.80;0.30;;;;;;;18.49;56.19;101069.00;4898379;28;98143;-63
2021/05/03 10:04:31;;;;;;;0.60;0.20;;;;;;;18.62;56.69;101072.81;4898917;28;97867;-63
2021/05/03 10:06:57;;;;;;;1.05;0.30;;;;;;;18.73;55.86;101070.69;4898271;28;99100;-63
2021/05/03 10:09:24;;;;;;;1.35;0.20;;;;;;;18.58;55.88;101071.81;4899064;28;99025;-60
2021/05/03 10:11:50;;;;;;;1.35;0.30;;;;;;;18.21;56.82;101079.13;4898231;28;98850;-63
2021/05/03 10:14:17;;;;;;;1.20;0.38;;;;;;;17.91;57.24;101077.78;4881378;28;102507;-62
2021/05/03 10:16:43;;;;;;;1.25;0.30;;;;;;;17.75;57.43;101077.28;4895582;28;126092;-59
2021/05/03 10:19:09;;;;;;;0.90;0.40;;;;;;;17.88;57.25;101079.22;4856631;28;126108;-60
2021/05/03 10:21:35;;;;;;;1.48;0.30;;;;;;;18.42;56.63;101068.59;4879010;28;129171;-63
2021/05/03 10:24:01;;;;;;;0.70;0.30;;;;;;;21.05;51.18;101066.59;4879193;28;123898;-60
2021/05/03 10:26:27;;;;;;;1.73;0.30;;;;;;;21.97;49.38;101062.69;4862625;28;114217;-60
2021/05/03 10:28:55;;;;;;;0.85;0.28;;;;;;;23.09;47.15;101052.91;4879603;28;128060;-63
2021/05/03 10:31:22;;;;;;;0.95;0.20;;;;;;;22.26;49.62;101067.41;4880425;28;98218;-60
2021/05/03 10:33:48;;;;;;;0.65;0.20;;;;;;;21.36;51.55;101056.59;4896284;28;97902;-60
2021/05/03 10:36:35;;;;;;;1.48;0.20;;;;;;;20.63;51.80;101059.97;4879095;28;99087;-63
2021/05/03 10:39:09;;;;;;;0.80;0.40;;;;;;;20.24;52.82;101069.88;4895920;28;114651;-60
2021/05/03 10:41:35;;;;;;;1.08;0.30;;;;;;;21.95;49.81;101062.22;4894672;28;117860;-63
2021/05/03 10:44:20;;;;;;;0.57;0.30;;;;;;;21.64;51.24;101060.53;4897972;28;121574;-63
2021/05/03 10:49:19;;;;;;;0.60;0.30;;;;;;;27.19;40.70;101046.22;4893355;28;113185;-61
2021/05/03 10:52:03;;;;;;;0.65;0.17;;;;;;;27.17;42.29;101049.34;4898058;28;97894;-63
2021/05/03 10:57:06;;;;;;;0.70;0.20;;;;;;;25.21;46.61;101059.31;4897753;28;98108;-61
2021/05/03 10:59:55;;;;;;;1.42;0.20;;;;;;;24.36;47.95;101049.31;4897456;28;99234;-60
2021/05/03 11:02:22;;;;;;;0.82;0.20;;;;;;;24.68;47.17;101047.56;4897651;28;98443;-63
2021/05/03 11:05:26;;;;;;;0.60;0.20;;;;;;;25.64;45.01;101037.59;4898131;28;98029;-60
2021/05/03 11:08:04;;;;;;;1.80;0.20;;;;;;;24.19;47.95;101035.81;4897862;28;99368;-60
2021/05/03 11:10:59;;;;;;;0.98;0.20;;;;;;;23.68;49.05;101038.09;4897380;28;100870;-60
2021/05/03 11:13:45;;;;;;;0.75;0.20;;;;;;;22.75;50.29;101045.75;4897607;28;98756;-63
2021/05/03 11:16:26;;;;;;;0.90;0.20;;;;;;;22.14;50.99;101048.09;4897834;28;98101;-60
2021/05/03 11:18:54;;;;;;;2.13;0.22;;;;;;;21.54;51.78;101049.94;4897421;28;98546;-63
2021/05/03 11:21:48;;;;;;;0.68;0.20;;;;;;;20.91;53.39;101046.78;4896777;28;99393;-63
2021/05/03 11:24:20;;;;;;;1.55;0.20;;;;;;;20.95;52.74;101045.00;4895830;28;98248;-63
2021/05/03 11:26:54;;;;;;;1.30;0.30;;;;;;;22.14;50.80;101040.66;4896905;28;99042;-63
2021/05/03 11:29:24;;;;;;;0.95;0.20;;;;;;;22.17;51.32;101037.28;4898083;28;98260;-60
2021/05/03 11:31:50;;;;;;;0.65;0.20;;;;;;;22.62;50.15;101024.84;4896965;28;99279;-60
2021/05/03 11:34:39;;;;;;;0.73;0.20;;;;;;;22.69;50.24;101025.13;4898004;28;98343;-60
2021/05/03 11:37:12;;;;;;;0.90;0.20;;;;;;;22.53;51.00;101028.47;4896795;28;97751;-63
2021/05/03 11:44:58;;;;;;;0.40;0.20;;;;;;;23.65;48.90;101019.47;4895236;28;98317;-60
2021/05/03 11:47:32;;;;;;;0.63;0.20;;;;;;;25.64;44.87;101026.56;4896824;28;98223;-63
2021/05/03 11:49:58;;;;;;;0.52;0.20;;;;;;;26.67;43.32;101028.19;4896251;28;114895;-64
2021/05/03 11:52:32;;;;;;;0.60;0.20;;;;;;;27.55;42.33;101021.94;4897970;28;127894;-63
2021/05/03 11:55:09;;;;;;;0.73;0.20;;;;;;;28.61;41.03;101033.09;4900546;28;98608;-64